sensor_id;sensor_type;location;lat;lon;timestamp;P1;durP1;ratioP1;P2;durP2;ratioP2
71288;SDS011;59068;52.502;9.860;2023-04-01T00:00:23;3.73;;;1.50;;
71288;SDS011;59068;52.502;9.860;2023-04-01T00:02:48;4.30;;;1.33;;
71288;SDS011;59068;52.502;9.860;2023-04-01T00:05:15;4.63;;;1.80;;
71288;SDS011;59068;52.502;9.860;2023-04-01T00:07:45;1.87;;;0.90;;
71288;SDS011;59068;52.502;9.860;2023-04-01T00:10:12;2.17;;;1.00;;
71288;SDS011;59068;52.502;9.860;2023-04-01T00:12:41;5.10;;;1.07;;
71288;SDS011;59068;52.502;9.860;2023-04-01T00:15:08;2.33;;;0.80;;
71288;SDS011;59068;52.502;9.860;2023-04-01T00:17:37;2.43;;;1.13;;
71288;SDS011;59068;52.502;9.860;2023-04-01T00:20:04;3.13;;;1.00;;
71288;SDS011;59068;52.502;9.860;2023-04-01T00:22:32;4.40;;;1.47;;
71288;SDS011;59068;52.502;9.860;2023-04-01T00:25:00;1.17;;;0.80;;
71288;SDS011;59068;52.502;9.860;2023-04-01T00:27:26;2.57;;;1.30;;
71288;SDS011;59068;52.502;9.860;2023-04-01T00:29:54;2.33;;;1.47;;
71288;SDS011;59068;52.502;9.860;2023-04-01T00:32:20;2.63;;;1.20;;
71288;SDS011;59068;52.502;9.860;2023-04-01T00:34:49;3.57;;;1.20;;
71288;SDS011;59068;52.502;9.860;2023-04-01T00:37:17;3.73;;;1.10;;
71288;SDS011;59068;52.502;9.860;2023-04-01T00:39:45;2.80;;;1.10;;
71288;SDS011;59068;52.502;9.860;2023-04-01T00:42:12;1.93;;;1.10;;
71288;SDS011;59068;52.502;9.860;2023-04-01T00:44:40;2.73;;;1.03;;
71288;SDS011;59068;52.502;9.860;2023-04-01T00:47:07;3.13;;;1.20;;
71288;SDS011;59068;52.502;9.860;2023-04-01T00:49:37;2.13;;;0.93;;
71288;SDS011;59068;52.502;9.860;2023-04-01T00:52:06;3.77;;;1.13;;
71288;SDS011;59068;52.502;9.860;2023-04-01T00:54:34;3.43;;;1.80;;
71288;SDS011;59068;52.502;9.860;2023-04-01T00:57:04;1.60;;;1.10;;
71288;SDS011;59068;52.502;9.860;2023-04-01T00:59:34;2.93;;;0.90;;
71288;SDS011;59068;52.502;9.860;2023-04-01T01:02:03;4.27;;;1.30;;
71288;SDS011;59068;52.502;9.860;2023-04-01T01:04:32;4.13;;;1.03;;
71288;SDS011;59068;52.502;9.860;2023-04-01T01:27:30;4.60;;;1.10;;
71288;SDS011;59068;52.502;9.860;2023-04-01T01:30:08;3.07;;;1.00;;
71288;SDS011;59068;52.502;9.860;2023-04-01T01:35:52;2.07;;;0.80;;
71288;SDS011;59068;52.502;9.860;2023-04-01T01:38:21;1.57;;;0.90;;
71288;SDS011;59068;52.502;9.860;2023-04-01T01:40:50;1.43;;;0.70;;
71288;SDS011;59068;52.502;9.860;2023-04-01T01:43:23;2.57;;;0.80;;
71288;SDS011;59068;52.502;9.860;2023-04-01T01:45:51;1.60;;;0.80;;
71288;SDS011;59068;52.502;9.860;2023-04-01T01:48:20;2.03;;;0.70;;
71288;SDS011;59068;52.502;9.860;2023-04-01T01:50:47;2.23;;;0.70;;
71288;SDS011;59068;52.502;9.860;2023-04-01T01:53:14;1.30;;;0.70;;
71288;SDS011;59068;52.502;9.860;2023-04-01T01:55:42;2.53;;;0.70;;
71288;SDS011;59068;52.502;9.860;2023-04-01T01:58:18;2.13;;;0.50;;
71288;SDS011;59068;52.502;9.860;2023-04-01T02:01:15;1.57;;;0.60;;
71288;SDS011;59068;52.502;9.860;2023-04-01T02:03:40;2.17;;;0.70;;
71288;SDS011;59068;52.502;9.860;2023-04-01T02:06:09;2.60;;;0.70;;
71288;SDS011;59068;52.502;9.860;2023-04-01T02:08:41;1.60;;;0.53;;
71288;SDS011;59068;52.502;9.860;2023-04-01T02:11:10;2.40;;;0.63;;
71288;SDS011;59068;52.502;9.860;2023-04-01T02:13:50;1.70;;;0.53;;
71288;SDS011;59068;52.502;9.860;2023-04-01T02:16:28;1.53;;;0.70;;
71288;SDS011;59068;52.502;9.860;2023-04-01T02:19:00;2.37;;;0.67;;
71288;SDS011;59068;52.502;9.860;2023-04-01T02:21:30;2.17;;;0.67;;
71288;SDS011;59068;52.502;9.860;2023-04-01T02:23:57;2.07;;;0.50;;
71288;SDS011;59068;52.502;9.860;2023-04-01T02:26:25;1.23;;;0.50;;
71288;SDS011;59068;52.502;9.860;2023-04-01T02:28:51;1.73;;;0.60;;
71288;SDS011;59068;52.502;9.860;2023-04-01T02:31:19;0.93;;;0.50;;
71288;SDS011;59068;52.502;9.860;2023-04-01T02:33:47;1.77;;;0.50;;
71288;SDS011;59068;52.502;9.860;2023-04-01T02:36:13;1.53;;;0.50;;
71288;SDS011;59068;52.502;9.860;2023-04-01T02:38:41;5.77;;;0.80;;
71288;SDS011;59068;52.502;9.860;2023-04-01T02:41:08;1.40;;;0.87;;
71288;SDS011;59068;52.502;9.860;2023-04-01T02:43:34;0.90;;;0.40;;
71288;SDS011;59068;52.502;9.860;2023-04-01T02:46:02;1.07;;;0.60;;
71288;SDS011;59068;52.502;9.860;2023-04-01T02:48:27;2.33;;;0.60;;
71288;SDS011;59068;52.502;9.860;2023-04-01T02:50:54;2.30;;;0.90;;
71288;SDS011;59068;52.502;9.860;2023-04-01T02:53:21;1.53;;;0.70;;
71288;SDS011;59068;52.502;9.860;2023-04-01T02:55:48;1.83;;;0.50;;
71288;SDS011;59068;52.502;9.860;2023-04-01T02:58:18;1.80;;;0.50;;
71288;SDS011;59068;52.502;9.860;2023-04-01T03:00:44;1.57;;;0.60;;
71288;SDS011;59068;52.502;9.860;2023-04-01T03:03:10;1.73;;;0.70;;
71288;SDS011;59068;52.502;9.860;2023-04-01T03:05:39;3.20;;;0.60;;
71288;SDS011;59068;52.502;9.860;2023-04-01T03:08:05;2.10;;;0.90;;
71288;SDS011;59068;52.502;9.860;2023-04-01T03:10:32;1.23;;;0.90;;
71288;SDS011;59068;52.502;9.860;2023-04-01T03:12:59;2.30;;;1.00;;
71288;SDS011;59068;52.502;9.860;2023-04-01T03:15:26;1.57;;;0.73;;
71288;SDS011;59068;52.502;9.860;2023-04-01T03:17:52;1.40;;;1.00;;
71288;SDS011;59068;52.502;9.860;2023-04-01T03:20:17;1.70;;;0.93;;
71288;SDS011;59068;52.502;9.860;2023-04-01T03:22:43;1.30;;;0.60;;
71288;SDS011;59068;52.502;9.860;2023-04-01T03:25:10;1.43;;;0.80;;
71288;SDS011;59068;52.502;9.860;2023-04-01T03:27:35;1.93;;;0.60;;
71288;SDS011;59068;52.502;9.860;2023-04-01T03:30:03;1.73;;;0.60;;
71288;SDS011;59068;52.502;9.860;2023-04-01T03:32:31;2.20;;;0.80;;
71288;SDS011;59068;52.502;9.860;2023-04-01T03:34:58;1.10;;;0.60;;
71288;SDS011;59068;52.502;9.860;2023-04-01T03:37:24;3.43;;;0.87;;
71288;SDS011;59068;52.502;9.860;2023-04-01T03:39:50;2.10;;;0.90;;
71288;SDS011;59068;52.502;9.860;2023-04-01T03:42:17;1.97;;;0.60;;
71288;SDS011;59068;52.502;9.860;2023-04-01T03:44:43;1.20;;;0.70;;
71288;SDS011;59068;52.502;9.860;2023-04-01T03:47:10;1.03;;;0.60;;
71288;SDS011;59068;52.502;9.860;2023-04-01T03:49:37;3.53;;;0.80;;
71288;SDS011;59068;52.502;9.860;2023-04-01T03:52:02;2.00;;;0.70;;
71288;SDS011;59068;52.502;9.860;2023-04-01T03:54:29;1.10;;;0.60;;
71288;SDS011;59068;52.502;9.860;2023-04-01T03:56:56;1.93;;;0.60;;
71288;SDS011;59068;52.502;9.860;2023-04-01T03:59:23;1.37;;;0.47;;
71288;SDS011;59068;52.502;9.860;2023-04-01T04:01:49;0.57;;;0.50;;
71288;SDS011;59068;52.502;9.860;2023-04-01T04:04:15;2.40;;;0.90;;
71288;SDS011;59068;52.502;9.860;2023-04-01T04:06:42;0.90;;;0.60;;
71288;SDS011;59068;52.502;9.860;2023-04-01T04:09:08;0.50;;;0.40;;
71288;SDS011;59068;52.502;9.860;2023-04-01T04:11:35;2.43;;;0.63;;
71288;SDS011;59068;52.502;9.860;2023-04-01T04:14:01;1.63;;;0.60;;
71288;SDS011;59068;52.502;9.860;2023-04-01T04:16:27;0.93;;;0.63;;
71288;SDS011;59068;52.502;9.860;2023-04-01T04:18:54;1.33;;;0.60;;
71288;SDS011;59068;52.502;9.860;2023-04-01T04:21:20;1.43;;;0.57;;
71288;SDS011;59068;52.502;9.860;2023-04-01T04:23:46;0.93;;;0.50;;
71288;SDS011;59068;52.502;9.860;2023-04-01T04:26:13;1.60;;;0.60;;
71288;SDS011;59068;52.502;9.860;2023-04-01T04:28:41;1.03;;;0.67;;
71288;SDS011;59068;52.502;9.860;2023-04-01T04:31:08;2.50;;;0.63;;
71288;SDS011;59068;52.502;9.860;2023-04-01T04:33:34;1.43;;;0.80;;
71288;SDS011;59068;52.502;9.860;2023-04-01T04:36:02;1.63;;;0.50;;
71288;SDS011;59068;52.502;9.860;2023-04-01T04:38:29;1.70;;;0.50;;
71288;SDS011;59068;52.502;9.860;2023-04-01T04:40:55;2.37;;;0.60;;
71288;SDS011;59068;52.502;9.860;2023-04-01T04:43:21;1.37;;;0.37;;
71288;SDS011;59068;52.502;9.860;2023-04-01T04:45:47;3.10;;;0.67;;
71288;SDS011;59068;52.502;9.860;2023-04-01T04:48:14;1.40;;;0.80;;
71288;SDS011;59068;52.502;9.860;2023-04-01T04:50:47;3.07;;;1.10;;
71288;SDS011;59068;52.502;9.860;2023-04-01T04:53:20;2.00;;;1.60;;
71288;SDS011;59068;52.502;9.860;2023-04-01T04:55:49;1.90;;;0.97;;
71288;SDS011;59068;52.502;9.860;2023-04-01T04:58:16;2.23;;;0.80;;
71288;SDS011;59068;52.502;9.860;2023-04-01T05:00:42;3.33;;;1.40;;
71288;SDS011;59068;52.502;9.860;2023-04-01T05:03:07;2.87;;;1.27;;
71288;SDS011;59068;52.502;9.860;2023-04-01T05:05:33;3.30;;;1.10;;
71288;SDS011;59068;52.502;9.860;2023-04-01T05:07:59;1.30;;;0.60;;
71288;SDS011;59068;52.502;9.860;2023-04-01T05:10:24;1.80;;;0.50;;
71288;SDS011;59068;52.502;9.860;2023-04-01T05:12:50;2.30;;;0.70;;
71288;SDS011;59068;52.502;9.860;2023-04-01T05:15:15;1.10;;;0.70;;
71288;SDS011;59068;52.502;9.860;2023-04-01T05:17:41;2.30;;;0.60;;
71288;SDS011;59068;52.502;9.860;2023-04-01T05:20:07;1.53;;;0.57;;
71288;SDS011;59068;52.502;9.860;2023-04-01T05:22:34;2.27;;;0.57;;
71288;SDS011;59068;52.502;9.860;2023-04-01T05:24:59;3.80;;;1.00;;
71288;SDS011;59068;52.502;9.860;2023-04-01T05:27:25;1.97;;;1.00;;
71288;SDS011;59068;52.502;9.860;2023-04-01T05:29:50;1.53;;;1.30;;
71288;SDS011;59068;52.502;9.860;2023-04-01T05:32:16;1.60;;;1.07;;
71288;SDS011;59068;52.502;9.860;2023-04-01T05:34:41;2.27;;;1.10;;
71288;SDS011;59068;52.502;9.860;2023-04-01T05:37:07;2.97;;;0.90;;
71288;SDS011;59068;52.502;9.860;2023-04-01T05:39:37;1.07;;;0.60;;
71288;SDS011;59068;52.502;9.860;2023-04-01T05:42:04;1.50;;;0.80;;
71288;SDS011;59068;52.502;9.860;2023-04-01T05:44:30;4.47;;;1.33;;
71288;SDS011;59068;52.502;9.860;2023-04-01T05:46:57;3.20;;;1.57;;
71288;SDS011;59068;52.502;9.860;2023-04-01T05:49:23;4.10;;;1.30;;
71288;SDS011;59068;52.502;9.860;2023-04-01T05:51:48;3.37;;;1.30;;
71288;SDS011;59068;52.502;9.860;2023-04-01T05:54:14;1.83;;;1.10;;
71288;SDS011;59068;52.502;9.860;2023-04-01T05:56:39;1.27;;;0.90;;
71288;SDS011;59068;52.502;9.860;2023-04-01T05:59:05;2.40;;;0.60;;
71288;SDS011;59068;52.502;9.860;2023-04-01T06:01:30;1.83;;;0.77;;
71288;SDS011;59068;52.502;9.860;2023-04-01T06:03:56;3.10;;;0.87;;
71288;SDS011;59068;52.502;9.860;2023-04-01T06:06:25;3.80;;;1.10;;
71288;SDS011;59068;52.502;9.860;2023-04-01T06:08:52;1.40;;;0.80;;
71288;SDS011;59068;52.502;9.860;2023-04-01T06:11:19;4.07;;;1.20;;
71288;SDS011;59068;52.502;9.860;2023-04-01T06:13:55;2.30;;;0.80;;
71288;SDS011;59068;52.502;9.860;2023-04-01T06:21:33;3.43;;;1.10;;
71288;SDS011;59068;52.502;9.860;2023-04-01T06:31:05;0.70;;;0.70;;
71288;SDS011;59068;52.502;9.860;2023-04-01T06:46:00;1.77;;;0.73;;
71288;SDS011;59068;52.502;9.860;2023-04-01T06:54:36;1.17;;;0.80;;
71288;SDS011;59068;52.502;9.860;2023-04-01T07:00:00;3.50;;;1.10;;
71288;SDS011;59068;52.502;9.860;2023-04-01T07:02:34;1.57;;;0.93;;
71288;SDS011;59068;52.502;9.860;2023-04-01T07:05:02;1.93;;;1.00;;
71288;SDS011;59068;52.502;9.860;2023-04-01T07:07:34;0.93;;;0.80;;
71288;SDS011;59068;52.502;9.860;2023-04-01T07:10:06;3.03;;;1.00;;
71288;SDS011;59068;52.502;9.860;2023-04-01T07:12:42;3.20;;;1.30;;
71288;SDS011;59068;52.502;9.860;2023-04-01T07:15:19;2.03;;;1.03;;
71288;SDS011;59068;52.502;9.860;2023-04-01T07:18:10;2.93;;;1.33;;
71288;SDS011;59068;52.502;9.860;2023-04-01T07:20:39;3.80;;;1.40;;
71288;SDS011;59068;52.502;9.860;2023-04-01T07:23:08;3.27;;;1.30;;
71288;SDS011;59068;52.502;9.860;2023-04-01T07:25:42;2.80;;;1.33;;
71288;SDS011;59068;52.502;9.860;2023-04-01T07:28:14;4.97;;;1.30;;
71288;SDS011;59068;52.502;9.860;2023-04-01T07:36:24;2.90;;;1.70;;
71288;SDS011;59068;52.502;9.860;2023-04-01T07:53:09;4.53;;;1.43;;
71288;SDS011;59068;52.502;9.860;2023-04-01T08:10:40;4.60;;;1.30;;
71288;SDS011;59068;52.502;9.860;2023-04-01T08:16:35;6.43;;;2.10;;
71288;SDS011;59068;52.502;9.860;2023-04-01T08:21:56;4.93;;;1.80;;
71288;SDS011;59068;52.502;9.860;2023-04-01T08:27:35;6.80;;;2.07;;
71288;SDS011;59068;52.502;9.860;2023-04-01T08:30:14;8.20;;;2.20;;
71288;SDS011;59068;52.502;9.860;2023-04-01T08:32:57;6.63;;;2.10;;
71288;SDS011;59068;52.502;9.860;2023-04-01T08:35:29;7.03;;;1.80;;
71288;SDS011;59068;52.502;9.860;2023-04-01T08:41:16;8.70;;;1.73;;
71288;SDS011;59068;52.502;9.860;2023-04-01T08:43:59;5.57;;;1.70;;
71288;SDS011;59068;52.502;9.860;2023-04-01T08:49:32;5.13;;;1.73;;
71288;SDS011;59068;52.502;9.860;2023-04-01T08:52:52;8.40;;;2.50;;
71288;SDS011;59068;52.502;9.860;2023-04-01T08:55:36;8.13;;;2.83;;
71288;SDS011;59068;52.502;9.860;2023-04-01T09:21:06;4.73;;;1.83;;
71288;SDS011;59068;52.502;9.860;2023-04-01T09:31:11;2.87;;;1.47;;
71288;SDS011;59068;52.502;9.860;2023-04-01T09:42:06;2.53;;;1.60;;
71288;SDS011;59068;52.502;9.860;2023-04-01T09:44:53;2.80;;;1.80;;
71288;SDS011;59068;52.502;9.860;2023-04-01T09:47:45;4.13;;;2.20;;
71288;SDS011;59068;52.502;9.860;2023-04-01T09:59:15;2.00;;;1.00;;
71288;SDS011;59068;52.502;9.860;2023-04-01T10:02:26;0.80;;;0.80;;
71288;SDS011;59068;52.502;9.860;2023-04-01T10:07:58;1.33;;;0.50;;
71288;SDS011;59068;52.502;9.860;2023-04-01T10:31:09;0.87;;;0.30;;
71288;SDS011;59068;52.502;9.860;2023-04-01T10:33:38;0.83;;;0.30;;
71288;SDS011;59068;52.502;9.860;2023-04-01T10:41:53;1.07;;;0.40;;
71288;SDS011;59068;52.502;9.860;2023-04-01T10:59:10;0.60;;;0.40;;
71288;SDS011;59068;52.502;9.860;2023-04-01T11:07:47;1.33;;;0.53;;
71288;SDS011;59068;52.502;9.860;2023-04-01T11:10:31;0.43;;;0.40;;
71288;SDS011;59068;52.502;9.860;2023-04-01T11:15:52;0.93;;;0.47;;
71288;SDS011;59068;52.502;9.860;2023-04-01T11:29:19;0.63;;;0.33;;
71288;SDS011;59068;52.502;9.860;2023-04-01T11:59:47;0.60;;;0.33;;
71288;SDS011;59068;52.502;9.860;2023-04-01T12:14:48;0.30;;;0.30;;
71288;SDS011;59068;52.502;9.860;2023-04-01T12:25:59;0.60;;;0.30;;
71288;SDS011;59068;52.502;9.860;2023-04-01T12:31:39;0.27;;;0.27;;
71288;SDS011;59068;52.502;9.860;2023-04-01T12:37:10;0.40;;;0.10;;
71288;SDS011;59068;52.502;9.860;2023-04-01T12:39:44;1.20;;;0.20;;
71288;SDS011;59068;52.502;9.860;2023-04-01T12:42:27;1.33;;;0.40;;
71288;SDS011;59068;52.502;9.860;2023-04-01T12:47:51;0.50;;;0.30;;
71288;SDS011;59068;52.502;9.860;2023-04-01T12:50:39;0.30;;;0.30;;
71288;SDS011;59068;52.502;9.860;2023-04-01T12:55:59;1.53;;;0.40;;
71288;SDS011;59068;52.502;9.860;2023-04-01T13:04:29;0.73;;;0.70;;
71288;SDS011;59068;52.502;9.860;2023-04-01T13:09:24;0.80;;;0.80;;
71288;SDS011;59068;52.502;9.860;2023-04-01T13:12:18;0.87;;;0.60;;
71288;SDS011;59068;52.502;9.860;2023-04-01T13:15:08;0.60;;;0.60;;
71288;SDS011;59068;52.502;9.860;2023-04-01T13:20:34;1.40;;;0.90;;
71288;SDS011;59068;52.502;9.860;2023-04-01T13:23:21;0.50;;;0.50;;
71288;SDS011;59068;52.502;9.860;2023-04-01T13:28:32;0.77;;;0.77;;
71288;SDS011;59068;52.502;9.860;2023-04-01T13:31:26;0.73;;;0.70;;
71288;SDS011;59068;52.502;9.860;2023-04-01T13:33:56;0.90;;;0.83;;
71288;SDS011;59068;52.502;9.860;2023-04-01T13:36:36;0.97;;;0.97;;
71288;SDS011;59068;52.502;9.860;2023-04-01T13:44:31;1.00;;;1.00;;
71288;SDS011;59068;52.502;9.860;2023-04-01T13:58:53;0.80;;;0.80;;
71288;SDS011;59068;52.502;9.860;2023-04-01T14:07:40;1.27;;;0.60;;
71288;SDS011;59068;52.502;9.860;2023-04-01T14:10:18;0.60;;;0.60;;
71288;SDS011;59068;52.502;9.860;2023-04-01T14:15:36;1.23;;;0.40;;
71288;SDS011;59068;52.502;9.860;2023-04-01T14:18:16;0.57;;;0.57;;
71288;SDS011;59068;52.502;9.860;2023-04-01T14:20:51;0.60;;;0.60;;
71288;SDS011;59068;52.502;9.860;2023-04-01T14:26:50;0.63;;;0.63;;
71288;SDS011;59068;52.502;9.860;2023-04-01T14:48:51;1.40;;;0.80;;
71288;SDS011;59068;52.502;9.860;2023-04-01T14:53:59;0.73;;;0.73;;
71288;SDS011;59068;52.502;9.860;2023-04-01T14:56:35;1.00;;;0.60;;
71288;SDS011;59068;52.502;9.860;2023-04-01T14:59:31;0.80;;;0.80;;
71288;SDS011;59068;52.502;9.860;2023-04-01T15:04:49;0.63;;;0.63;;
71288;SDS011;59068;52.502;9.860;2023-04-01T15:07:46;0.77;;;0.60;;
71288;SDS011;59068;52.502;9.860;2023-04-01T15:18:51;0.57;;;0.57;;
71288;SDS011;59068;52.502;9.860;2023-04-01T15:24:23;0.60;;;0.60;;
71288;SDS011;59068;52.502;9.860;2023-04-01T15:26:58;0.70;;;0.60;;
71288;SDS011;59068;52.502;9.860;2023-04-01T15:32:17;0.60;;;0.60;;
71288;SDS011;59068;52.502;9.860;2023-04-01T15:40:20;0.70;;;0.70;;
71288;SDS011;59068;52.502;9.860;2023-04-01T15:42:53;0.80;;;0.67;;
71288;SDS011;59068;52.502;9.860;2023-04-01T15:50:58;0.90;;;0.53;;
71288;SDS011;59068;52.502;9.860;2023-04-01T15:53:50;0.80;;;0.77;;
71288;SDS011;59068;52.502;9.860;2023-04-01T15:56:36;1.60;;;0.80;;
71288;SDS011;59068;52.502;9.860;2023-04-01T16:02:07;1.00;;;1.00;;
71288;SDS011;59068;52.502;9.860;2023-04-01T16:04:48;0.60;;;0.60;;
71288;SDS011;59068;52.502;9.860;2023-04-01T16:12:53;0.80;;;0.80;;
71288;SDS011;59068;52.502;9.860;2023-04-01T16:15:35;1.70;;;1.27;;
71288;SDS011;59068;52.502;9.860;2023-04-01T16:20:55;1.33;;;1.23;;
71288;SDS011;59068;52.502;9.860;2023-04-01T16:29:26;0.57;;;0.57;;
71288;SDS011;59068;52.502;9.860;2023-04-01T16:32:12;1.23;;;0.80;;
71288;SDS011;59068;52.502;9.860;2023-04-01T16:34:47;0.80;;;0.80;;
71288;SDS011;59068;52.502;9.860;2023-04-01T16:37:29;0.60;;;0.60;;
71288;SDS011;59068;52.502;9.860;2023-04-01T16:42:47;0.40;;;0.40;;
71288;SDS011;59068;52.502;9.860;2023-04-01T16:50:23;0.70;;;0.70;;
71288;SDS011;59068;52.502;9.860;2023-04-01T16:53:08;0.70;;;0.70;;
71288;SDS011;59068;52.502;9.860;2023-04-01T16:55:49;0.83;;;0.60;;
71288;SDS011;59068;52.502;9.860;2023-04-01T16:58:25;0.63;;;0.63;;
71288;SDS011;59068;52.502;9.860;2023-04-01T17:00:58;1.00;;;0.60;;
71288;SDS011;59068;52.502;9.860;2023-04-01T17:06:38;1.17;;;0.70;;
71288;SDS011;59068;52.502;9.860;2023-04-01T17:15:10;1.00;;;0.80;;
71288;SDS011;59068;52.502;9.860;2023-04-01T17:20:26;0.70;;;0.70;;
71288;SDS011;59068;52.502;9.860;2023-04-01T17:22:55;1.10;;;1.10;;
71288;SDS011;59068;52.502;9.860;2023-04-01T17:25:48;0.87;;;0.87;;
71288;SDS011;59068;52.502;9.860;2023-04-01T17:30:49;1.07;;;1.07;;
71288;SDS011;59068;52.502;9.860;2023-04-01T17:38:34;1.00;;;0.90;;
71288;SDS011;59068;52.502;9.860;2023-04-01T17:43:43;1.20;;;1.10;;
71288;SDS011;59068;52.502;9.860;2023-04-01T17:46:32;1.23;;;1.13;;
71288;SDS011;59068;52.502;9.860;2023-04-01T17:49:17;4.83;;;2.60;;
71288;SDS011;59068;52.502;9.860;2023-04-01T18:00:14;1.83;;;1.17;;
71288;SDS011;59068;52.502;9.860;2023-04-01T18:08:12;1.07;;;0.97;;
71288;SDS011;59068;52.502;9.860;2023-04-01T18:19:09;1.63;;;1.27;;
71288;SDS011;59068;52.502;9.860;2023-04-01T18:21:56;1.23;;;1.13;;
71288;SDS011;59068;52.502;9.860;2023-04-01T18:32:37;1.10;;;1.10;;
71288;SDS011;59068;52.502;9.860;2023-04-01T18:38:13;1.33;;;1.23;;
71288;SDS011;59068;52.502;9.860;2023-04-01T18:40:49;1.47;;;1.37;;
71288;SDS011;59068;52.502;9.860;2023-04-01T18:43:30;1.97;;;1.30;;
71288;SDS011;59068;52.502;9.860;2023-04-01T18:46:16;1.83;;;1.40;;
71288;SDS011;59068;52.502;9.860;2023-04-01T18:48:55;1.40;;;1.30;;
71288;SDS011;59068;52.502;9.860;2023-04-01T18:54:19;1.60;;;1.50;;
71288;SDS011;59068;52.502;9.860;2023-04-01T18:56:49;1.30;;;1.20;;
71288;SDS011;59068;52.502;9.860;2023-04-01T19:06:54;1.97;;;1.50;;
71288;SDS011;59068;52.502;9.860;2023-04-01T19:09:32;1.63;;;1.23;;
71288;SDS011;59068;52.502;9.860;2023-04-01T19:12:13;2.20;;;2.00;;
71288;SDS011;59068;52.502;9.860;2023-04-01T19:14:51;1.80;;;1.70;;
71288;SDS011;59068;52.502;9.860;2023-04-01T19:23:20;1.87;;;1.77;;
71288;SDS011;59068;52.502;9.860;2023-04-01T19:26:09;2.30;;;1.77;;
71288;SDS011;59068;52.502;9.860;2023-04-01T19:28:58;2.30;;;1.93;;
71288;SDS011;59068;52.502;9.860;2023-04-01T19:37:47;3.10;;;1.90;;
71288;SDS011;59068;52.502;9.860;2023-04-01T19:45:59;3.93;;;2.00;;
71288;SDS011;59068;52.502;9.860;2023-04-01T19:54:45;4.20;;;2.70;;
71288;SDS011;59068;52.502;9.860;2023-04-01T20:00:15;3.20;;;2.50;;
71288;SDS011;59068;52.502;9.860;2023-04-01T20:02:52;3.43;;;2.87;;
71288;SDS011;59068;52.502;9.860;2023-04-01T20:05:30;3.27;;;2.40;;
71288;SDS011;59068;52.502;9.860;2023-04-01T20:08:29;5.50;;;3.10;;
71288;SDS011;59068;52.502;9.860;2023-04-01T20:14:00;3.90;;;3.20;;
71288;SDS011;59068;52.502;9.860;2023-04-01T20:19:20;3.20;;;2.77;;
71288;SDS011;59068;52.502;9.860;2023-04-01T20:21:51;3.40;;;2.80;;
71288;SDS011;59068;52.502;9.860;2023-04-01T20:24:40;4.30;;;3.10;;
71288;SDS011;59068;52.502;9.860;2023-04-01T20:27:15;3.03;;;2.73;;
71288;SDS011;59068;52.502;9.860;2023-04-01T20:30:00;3.57;;;3.10;;
71288;SDS011;59068;52.502;9.860;2023-04-01T20:37:51;3.40;;;3.10;;
71288;SDS011;59068;52.502;9.860;2023-04-01T20:48:02;3.20;;;2.90;;
71288;SDS011;59068;52.502;9.860;2023-04-01T20:58:24;4.07;;;3.67;;
71288;SDS011;59068;52.502;9.860;2023-04-01T21:00:57;3.83;;;3.43;;
71288;SDS011;59068;52.502;9.860;2023-04-01T21:17:42;7.30;;;3.77;;
71288;SDS011;59068;52.502;9.860;2023-04-01T21:39:52;3.40;;;2.93;;
71288;SDS011;59068;52.502;9.860;2023-04-01T21:50:35;5.50;;;3.60;;
71288;SDS011;59068;52.502;9.860;2023-04-01T22:06:56;6.97;;;4.00;;
71288;SDS011;59068;52.502;9.860;2023-04-01T22:09:25;6.17;;;3.83;;
71288;SDS011;59068;52.502;9.860;2023-04-01T22:14:40;5.53;;;4.13;;
71288;SDS011;59068;52.502;9.860;2023-04-01T22:17:16;5.37;;;3.70;;
71288;SDS011;59068;52.502;9.860;2023-04-01T22:19:59;4.77;;;3.90;;
71288;SDS011;59068;52.502;9.860;2023-04-01T22:23:00;5.13;;;3.50;;
71288;SDS011;59068;52.502;9.860;2023-04-01T22:28:19;8.03;;;4.07;;
71288;SDS011;59068;52.502;9.860;2023-04-01T22:30:50;6.00;;;3.83;;
71288;SDS011;59068;52.502;9.860;2023-04-01T22:33:20;4.80;;;3.53;;
71288;SDS011;59068;52.502;9.860;2023-04-01T22:38:40;5.43;;;3.40;;
71288;SDS011;59068;52.502;9.860;2023-04-01T22:41:30;4.20;;;3.80;;
71288;SDS011;59068;52.502;9.860;2023-04-01T22:44:08;4.40;;;4.00;;
71288;SDS011;59068;52.502;9.860;2023-04-01T22:49:25;5.83;;;4.00;;
71288;SDS011;59068;52.502;9.860;2023-04-01T22:52:00;5.77;;;3.77;;
71288;SDS011;59068;52.502;9.860;2023-04-01T22:54:40;10.53;;;4.47;;
71288;SDS011;59068;52.502;9.860;2023-04-01T23:05:52;4.37;;;3.97;;
71288;SDS011;59068;52.502;9.860;2023-04-01T23:11:10;6.20;;;3.13;;
71288;SDS011;59068;52.502;9.860;2023-04-01T23:16:34;5.07;;;3.37;;
71288;SDS011;59068;52.502;9.860;2023-04-01T23:19:13;4.83;;;3.40;;
71288;SDS011;59068;52.502;9.860;2023-04-01T23:21:49;4.57;;;3.40;;
71288;SDS011;59068;52.502;9.860;2023-04-01T23:30:02;4.80;;;2.90;;
71288;SDS011;59068;52.502;9.860;2023-04-01T23:32:28;6.50;;;3.43;;
71288;SDS011;59068;52.502;9.860;2023-04-01T23:34:54;5.30;;;3.27;;
71288;SDS011;59068;52.502;9.860;2023-04-01T23:37:21;6.10;;;2.80;;
71288;SDS011;59068;52.502;9.860;2023-04-01T23:39:48;4.10;;;2.60;;
71288;SDS011;59068;52.502;9.860;2023-04-01T23:42:26;5.20;;;2.70;;
71288;SDS011;59068;52.502;9.860;2023-04-01T23:44:55;5.63;;;2.60;;
71288;SDS011;59068;52.502;9.860;2023-04-01T23:47:22;6.40;;;2.57;;
71288;SDS011;59068;52.502;9.860;2023-04-01T23:49:51;5.73;;;2.60;;
71288;SDS011;59068;52.502;9.860;2023-04-01T23:52:23;3.43;;;2.27;;
71288;SDS011;59068;52.502;9.860;2023-04-01T23:57:39;4.93;;;2.10;;
